Liberec, Czech Republic
Current Conditions -  °F | °C
As of 3:00 PM on Wednesday 26 Nov 2014 (Local Time) from LKKB Reporting Station
Overcast Overcast  
Wind Chill: 29°   Ceiling: 2000
Heat Index: 36°   Visibility: 6mi
Dew Point: 34°   Wind: 9mph
Humidity: 93%   Direction: 90°E
Pressure: 30.15"   Gusts: NA
Location:  50.78°N, 15.06°E
Report Text: LKKB 261300Z 09008KT 9999 OVC020 02/01 Q1021 NOSIG
Loading
Personal Weather Stations






























Interactive Weather Map New forecast layout! Learn more

10-Day Weather Forecast

Advertisements
Track Severe Weather on mobile